createdAt,value
2019-06-08T00:01:22.920Z,100660.31
2019-06-08T00:03:48.878Z,100658.50
2019-06-08T00:06:14.760Z,100659.84
2019-06-08T00:08:40.634Z,100666.37
2019-06-08T00:11:06.494Z,100651.68
2019-06-08T00:13:32.336Z,100662.69
2019-06-08T00:15:58.231Z,100671.67
2019-06-08T00:18:24.096Z,100658.81
2019-06-08T00:20:49.950Z,100671.36
2019-06-08T00:23:15.836Z,100678.91
2019-06-08T00:25:41.702Z,100667.71
2019-06-08T00:28:07.581Z,100665.48
2019-06-08T00:30:33.971Z,100663.80
2019-06-08T00:33:01.868Z,100656.30
2019-06-08T00:35:27.732Z,100658.84
2019-06-08T00:37:53.623Z,100655.32
2019-06-08T00:40:21.427Z,100664.64
2019-06-08T00:42:47.280Z,100667.97
2019-06-08T00:45:13.351Z,100677.52
2019-06-08T00:47:47.677Z,100681.05
2019-06-08T00:50:08.691Z,100673.70
2019-06-08T00:52:34.599Z,100685.95
2019-06-08T00:55:00.460Z,100694.36
2019-06-08T00:57:26.531Z,100690.41
2019-06-08T00:59:52.393Z,100673.16
2019-06-08T01:02:18.299Z,100694.58
2019-06-08T01:04:44.156Z,100697.13
2019-06-08T01:07:10.033Z,100702.55
2019-06-08T01:09:36.291Z,100700.51
2019-06-08T01:12:02.352Z,100704.41
2019-06-08T01:14:29.106Z,100709.20
2019-06-08T01:16:55.092Z,100715.10
2019-06-08T01:19:21.157Z,100713.53
2019-06-08T01:21:47.083Z,100735.15
2019-06-08T01:24:12.950Z,100734.83
2019-06-08T01:26:38.817Z,100730.84
2019-06-08T01:29:04.670Z,100727.61
2019-06-08T01:31:30.606Z,100726.89
2019-06-08T01:33:56.449Z,100728.96
2019-06-08T01:36:22.793Z,100745.37
2019-06-08T01:38:48.670Z,100757.57
2019-06-08T01:41:14.535Z,100740.59
2019-06-08T01:43:40.387Z,100741.03
2019-06-08T01:46:06.254Z,100749.58
2019-06-08T01:48:32.385Z,100751.12
2019-06-08T01:50:58.273Z,100748.69
2019-06-08T01:53:24.683Z,100742.50
2019-06-08T01:55:50.681Z,100748.18
2019-06-08T01:58:16.549Z,100754.44
2019-06-08T02:00:42.484Z,100754.79
2019-06-08T02:03:08.344Z,100751.68
2019-06-08T02:05:34.543Z,100751.84
2019-06-08T02:08:00.480Z,100756.00
2019-06-08T02:10:26.689Z,100769.72
2019-06-08T02:12:52.761Z,100763.11
2019-06-08T02:15:20.688Z,100755.14
2019-06-08T02:17:46.554Z,100760.35
2019-06-08T02:20:13.011Z,100758.78
2019-06-08T02:22:39.380Z,100763.28
2019-06-08T02:25:06.327Z,100769.69
2019-06-08T02:27:33.528Z,100761.36
2019-06-08T02:29:59.464Z,100771.66
2019-06-08T02:32:25.326Z,100761.91
2019-06-08T02:34:51.195Z,100769.54
2019-06-08T02:37:17.054Z,100774.88
2019-06-08T02:39:42.998Z,100782.45
2019-06-08T02:42:08.880Z,100785.70
2019-06-08T02:44:36.299Z,100779.36
2019-06-08T02:47:02.618Z,100792.51
2019-06-08T02:49:29.123Z,100801.66
2019-06-08T02:51:55.038Z,100792.83
2019-06-08T02:54:21.508Z,100799.73
2019-06-08T02:56:47.964Z,100809.40
2019-06-08T02:59:14.134Z,100803.04
2019-06-08T03:01:40.903Z,100805.80
2019-06-08T03:04:06.849Z,100800.77
2019-06-08T03:06:35.056Z,100797.17
2019-06-08T03:09:04.485Z,100795.81
2019-06-08T03:11:32.877Z,100803.19
2019-06-08T03:13:58.699Z,100819.07
2019-06-08T03:16:24.681Z,100815.97
2019-06-08T03:18:50.545Z,100826.48
2019-06-08T03:21:16.480Z,100835.65
2019-06-08T03:23:43.511Z,100841.80
2019-06-08T03:26:09.526Z,100843.73
2019-06-08T03:28:37.106Z,100857.87
2019-06-08T03:31:03.141Z,100859.73
2019-06-08T03:33:28.988Z,100858.73
2019-06-08T03:35:57.747Z,100871.50
2019-06-08T03:38:22.610Z,100862.36
2019-06-08T03:40:48.484Z,100866.30
2019-06-08T03:43:14.335Z,100869.39
2019-06-08T03:45:40.773Z,100869.41
2019-06-08T03:48:07.282Z,100880.98
2019-06-08T03:50:33.120Z,100880.96
2019-06-08T03:53:00.888Z,100882.34
2019-06-08T03:55:26.794Z,100905.61
2019-06-08T03:57:52.648Z,100916.47
2019-06-08T04:00:18.720Z,100897.35
2019-06-08T04:02:46.647Z,100917.35
2019-06-08T04:05:12.548Z,100923.38
2019-06-08T04:07:39.822Z,100920.97
2019-06-08T04:10:06.063Z,100924.25
2019-06-08T04:12:32.916Z,100919.94
2019-06-08T04:14:58.770Z,100926.66
2019-06-08T04:17:24.657Z,100920.11
2019-06-08T04:20:09.713Z,100916.30
2019-06-08T04:22:18.312Z,100921.15
2019-06-08T04:24:44.809Z,100943.20
2019-06-08T04:27:11.942Z,100928.89
2019-06-08T04:29:39.460Z,100933.03
2019-06-08T04:32:05.460Z,100955.80
2019-06-08T04:34:31.317Z,100952.48
2019-06-08T04:36:57.186Z,100950.08
2019-06-08T04:39:23.049Z,100957.27
2019-06-08T04:41:50.731Z,100936.79
2019-06-08T04:44:16.727Z,100951.94
2019-06-08T04:46:43.700Z,100949.52
2019-06-08T04:49:10.555Z,100955.05
2019-06-08T04:51:36.403Z,100974.17
2019-06-08T04:54:02.572Z,100961.42
2019-06-08T04:56:28.432Z,100967.11
2019-06-08T04:58:54.323Z,100970.76
2019-06-08T05:01:20.181Z,100981.97
2019-06-08T05:03:47.798Z,100984.70
2019-06-08T05:06:14.016Z,100982.41
2019-06-08T05:08:40.967Z,100985.17
2019-06-08T05:11:06.926Z,100969.66
2019-06-08T05:13:32.866Z,100973.83
2019-06-08T05:15:58.722Z,100976.75
2019-06-08T05:18:26.069Z,100975.03
2019-06-08T05:20:52.177Z,100992.77
2019-06-08T05:23:18.059Z,100989.32
2019-06-08T05:25:45.122Z,100997.62
2019-06-08T05:28:10.994Z,100995.02
2019-06-08T05:30:36.858Z,100991.89
2019-06-08T05:33:02.830Z,101008.11
2019-06-08T05:35:28.695Z,101004.12
2019-06-08T05:37:54.579Z,101014.56
2019-06-08T05:40:21.536Z,100998.94
2019-06-08T05:42:47.863Z,101016.19
2019-06-08T05:45:14.342Z,101025.27
2019-06-08T05:47:41.688Z,101016.63
2019-06-08T05:50:08.084Z,101023.02
2019-06-08T05:52:33.934Z,101041.99
2019-06-08T05:54:59.798Z,101039.88
2019-06-08T05:57:25.661Z,101036.84
2019-06-08T05:59:51.570Z,101036.81
2019-06-08T06:02:17.388Z,101052.08
2019-06-08T06:04:44.392Z,101043.19
2019-06-08T06:07:10.389Z,101055.70
2019-06-08T06:09:36.255Z,101067.58
2019-06-08T06:12:02.132Z,101066.93
2019-06-08T06:14:27.988Z,101062.27
2019-06-08T06:16:53.982Z,101068.59
2019-06-08T06:19:19.825Z,101067.34
2019-06-08T06:21:45.685Z,101080.34
2019-06-08T06:24:11.549Z,101085.80
2019-06-08T06:26:37.504Z,101102.72
2019-06-08T06:29:03.557Z,101101.20
2019-06-08T06:31:29.444Z,101074.48
2019-06-08T06:33:55.303Z,101121.44
2019-06-08T06:36:21.155Z,101114.42
2019-06-08T06:38:48.164Z,101109.61
2019-06-08T06:41:14.402Z,101123.80
2019-06-08T06:43:40.263Z,101118.36
2019-06-08T06:46:06.143Z,101143.56
2019-06-08T06:48:31.990Z,101132.81
2019-06-08T06:50:57.975Z,101132.48
2019-06-08T06:53:23.824Z,101144.06
2019-06-08T06:55:50.980Z,101153.36
2019-06-08T06:58:16.958Z,101157.52
2019-06-08T07:00:43.268Z,101138.73
2019-06-08T07:03:09.125Z,101157.73
2019-06-08T07:05:35.090Z,101155.86
2019-06-08T07:08:00.961Z,101170.11
2019-06-08T07:10:26.817Z,101164.38
2019-06-08T07:12:52.866Z,101180.08
2019-06-08T07:15:26.950Z,101180.21
2019-06-08T07:17:54.885Z,101188.20
2019-06-08T07:20:20.879Z,101180.66
2019-06-08T07:22:46.735Z,101182.34
2019-06-08T07:25:12.606Z,101187.48
2019-06-08T07:27:38.475Z,101205.17
2019-06-08T07:30:04.798Z,101186.92
2019-06-08T07:32:31.256Z,101190.43
2019-06-08T07:34:57.133Z,101187.64
2019-06-08T07:37:22.989Z,101169.22
2019-06-08T07:39:50.051Z,101190.64
2019-06-08T07:42:16.408Z,101193.45
2019-06-08T07:44:42.278Z,101189.53
2019-06-08T07:47:08.184Z,101187.48
2019-06-08T07:49:34.039Z,101182.66
2019-06-08T07:52:09.772Z,101192.05
2019-06-08T07:54:27.672Z,101209.67
2019-06-08T07:56:54.823Z,101198.55
2019-06-08T07:59:20.884Z,101207.13
2019-06-08T08:01:47.770Z,101191.91
2019-06-08T08:04:13.610Z,101199.14
2019-06-08T08:06:39.474Z,101198.68
2019-06-08T08:09:06.545Z,101202.95
2019-06-08T08:11:32.397Z,101222.92
2019-06-08T08:13:59.086Z,101237.71
2019-06-08T08:16:25.153Z,101228.98
2019-06-08T08:18:51.151Z,101235.16
2019-06-08T08:21:23.136Z,101238.63
2019-06-08T08:23:44.841Z,101252.41
2019-06-08T08:26:10.714Z,101239.11
2019-06-08T08:28:37.499Z,101236.13
2019-06-08T08:31:03.459Z,101259.75
2019-06-08T08:33:29.329Z,101240.05
2019-06-08T08:35:55.579Z,101240.52
2019-06-08T08:38:21.563Z,101243.66
2019-06-08T08:40:49.739Z,101239.86
2019-06-08T08:43:17.668Z,101236.74
2019-06-08T08:45:43.050Z,101256.12
2019-06-08T08:48:22.924Z,101262.39
2019-06-08T08:50:38.259Z,101253.75
2019-06-08T08:53:04.244Z,101248.41
2019-06-08T08:55:30.089Z,101279.45
2019-06-08T08:57:57.046Z,101269.47
2019-06-08T09:00:24.628Z,101263.13
2019-06-08T09:03:10.898Z,101274.84
2019-06-08T09:05:18.316Z,101278.17
2019-06-08T09:07:44.134Z,101276.73
2019-06-08T09:10:11.426Z,101287.19
2019-06-08T09:12:37.802Z,101270.67
2019-06-08T09:15:08.322Z,101285.64
2019-06-08T09:17:33.211Z,101284.44
2019-06-08T09:20:03.253Z,101293.22
2019-06-08T09:22:28.156Z,101298.30
2019-06-08T09:24:56.144Z,101300.03
2019-06-08T09:27:22.374Z,101298.78
2019-06-08T09:29:48.378Z,101326.64
2019-06-08T09:32:14.421Z,101304.55
2019-06-08T09:34:40.349Z,101339.14
2019-06-08T09:37:08.131Z,101323.41
2019-06-08T09:39:34.075Z,101343.48
2019-06-08T09:42:02.783Z,101344.31
2019-06-08T09:44:28.152Z,101348.62
2019-06-08T09:46:55.169Z,101341.52
2019-06-08T09:49:21.953Z,101344.28
2019-06-08T09:51:48.638Z,101345.67
2019-06-08T09:54:15.943Z,101367.98
2019-06-08T09:56:42.647Z,101364.37
2019-06-08T09:59:11.055Z,101370.56
2019-06-08T10:01:38.343Z,101385.41
2019-06-08T10:04:06.154Z,101415.17
2019-06-08T10:06:31.888Z,101389.50
2019-06-08T10:08:58.519Z,101402.67
2019-06-08T10:11:24.535Z,101390.27
2019-06-08T10:13:50.403Z,101449.15
2019-06-08T10:16:18.341Z,101421.17
2019-06-08T10:18:44.013Z,101425.98
2019-06-08T10:21:10.141Z,101456.59
2019-06-08T10:23:41.188Z,101445.91
2019-06-08T10:26:05.155Z,101438.25
2019-06-08T10:28:32.049Z,101447.13
2019-06-08T10:31:00.034Z,101454.44
2019-06-08T10:33:28.050Z,101464.09
2019-06-08T10:35:53.433Z,101452.12
2019-06-08T10:38:19.315Z,101464.25
2019-06-08T10:41:07.139Z,101479.49
2019-06-08T10:43:29.785Z,101463.56
2019-06-08T10:46:00.193Z,101481.05
2019-06-08T10:48:24.092Z,101471.34
2019-06-08T10:50:49.985Z,101457.69
2019-06-08T10:53:16.595Z,101485.36
2019-06-08T10:55:42.734Z,101484.87
2019-06-08T10:58:10.912Z,101496.27
2019-06-08T11:00:38.687Z,101469.28
2019-06-08T11:03:06.710Z,101491.27
2019-06-08T11:05:31.905Z,101483.84
2019-06-08T11:07:59.279Z,101477.39
2019-06-08T11:10:25.534Z,101477.20
2019-06-08T11:12:51.421Z,101480.91
2019-06-08T11:15:17.473Z,101491.26
2019-06-08T11:17:43.436Z,101497.64
2019-06-08T11:20:13.120Z,101493.52
2019-06-08T11:22:37.564Z,101509.09
2019-06-08T11:25:15.171Z,101522.75
2019-06-08T11:27:34.759Z,101536.03
2019-06-08T11:30:05.888Z,101533.45
2019-06-08T11:32:28.405Z,101549.47
2019-06-08T11:34:54.262Z,101547.95
2019-06-08T11:37:21.043Z,101562.22
2019-06-08T11:39:49.173Z,101571.66
2019-06-08T11:42:14.953Z,101564.48
2019-06-08T11:44:41.630Z,101581.93
2019-06-08T11:47:11.337Z,101581.27
2019-06-08T11:49:35.242Z,101580.22
2019-06-08T11:52:02.473Z,101576.30
2019-06-08T11:54:36.839Z,101567.03
2019-06-08T11:56:57.708Z,101592.63
2019-06-08T11:59:23.670Z,101578.46
2019-06-08T12:01:50.563Z,101575.91
2019-06-08T12:04:18.388Z,101583.34
2019-06-08T12:06:44.265Z,101569.82
2019-06-08T12:09:12.284Z,101573.81
2019-06-08T12:11:38.334Z,101575.87
2019-06-08T12:14:04.808Z,101577.62
2019-06-08T12:16:30.762Z,101580.38
2019-06-08T12:18:58.668Z,101613.08
2019-06-08T12:21:24.390Z,101612.28
2019-06-08T12:23:50.283Z,101613.45
2019-06-08T12:26:16.143Z,101626.08
2019-06-08T12:28:42.068Z,101613.66
2019-06-08T12:31:13.241Z,101621.91
2019-06-08T12:33:35.707Z,101613.12
2019-06-08T12:36:01.562Z,101610.48
2019-06-08T12:38:29.989Z,101617.63
2019-06-08T12:40:55.178Z,101618.99
2019-06-08T12:43:21.037Z,101618.62
2019-06-08T12:45:46.910Z,101604.22
2019-06-08T12:48:16.206Z,101602.58
2019-06-08T12:50:40.530Z,101612.03
2019-06-08T12:53:11.227Z,101604.14
2019-06-08T12:55:34.254Z,101618.44
2019-06-08T12:58:00.107Z,101608.53
2019-06-08T13:00:28.038Z,101603.13
2019-06-08T13:02:54.139Z,101608.91
2019-06-08T13:05:22.784Z,101613.70
2019-06-08T13:07:48.078Z,101632.78
2019-06-08T13:10:15.343Z,101627.62
2019-06-08T13:12:41.284Z,101634.22
2019-06-08T13:15:08.447Z,101630.66
2019-06-08T13:17:35.327Z,101649.83
2019-06-08T13:20:01.193Z,101648.91
2019-06-08T13:22:28.987Z,101646.34
2019-06-08T13:24:54.827Z,101651.55
2019-06-08T13:27:22.974Z,101644.20
2019-06-08T13:29:48.923Z,101646.94
2019-06-08T13:32:16.535Z,101643.08
2019-06-08T13:34:42.703Z,101648.19
2019-06-08T13:37:08.567Z,101644.77
2019-06-08T13:39:34.665Z,101645.58
2019-06-08T13:42:00.478Z,101654.75
2019-06-08T13:44:27.885Z,101648.11
2019-06-08T13:46:54.100Z,101653.01
2019-06-08T13:49:26.665Z,101654.17
2019-06-08T13:51:47.983Z,101663.82
2019-06-08T13:54:15.505Z,101666.45
2019-06-08T13:56:41.338Z,101674.86
2019-06-08T13:59:08.005Z,101676.59
2019-06-08T14:01:34.175Z,101682.38
2019-06-08T14:04:00.398Z,101686.90
2019-06-08T14:06:28.438Z,101693.03
2019-06-08T14:08:54.326Z,101692.55
2019-06-08T14:11:22.090Z,101693.38
2019-06-08T14:13:48.111Z,101698.97
2019-06-08T14:16:15.930Z,101690.16
2019-06-08T14:18:41.729Z,101703.78
2019-06-08T14:21:07.618Z,101713.08
2019-06-08T14:23:33.452Z,101714.73
2019-06-08T14:26:00.207Z,101704.51
2019-06-08T14:28:28.593Z,101723.41
2019-06-08T14:30:54.006Z,101726.48
2019-06-08T14:33:25.182Z,101721.60
2019-06-08T14:35:47.634Z,101716.68
2019-06-08T14:38:13.482Z,101728.34
2019-06-08T14:40:39.351Z,101724.56
2019-06-08T14:43:05.202Z,101716.20
2019-06-08T14:45:31.274Z,101721.97
2019-06-08T14:47:58.697Z,101722.94
2019-06-08T14:50:24.718Z,101726.55
2019-06-08T14:52:50.604Z,101732.88
2019-06-08T14:55:19.782Z,101723.23
2019-06-08T14:57:44.234Z,101729.08
2019-06-08T15:00:13.549Z,101735.26
2019-06-08T15:02:39.416Z,101726.23
2019-06-08T15:05:07.653Z,101725.32
2019-06-08T15:07:33.377Z,101733.50
2019-06-08T15:09:59.401Z,101732.00
2019-06-08T15:12:25.543Z,101739.83
2019-06-08T15:14:51.458Z,101744.20
2019-06-08T15:17:17.393Z,101748.72
2019-06-08T15:19:43.361Z,101743.64
2019-06-08T15:22:11.240Z,101749.36
2019-06-08T15:24:37.999Z,101741.66
2019-06-08T15:27:03.875Z,101742.71
2019-06-08T15:29:31.364Z,101745.66
2019-06-08T15:31:58.185Z,101745.23
2019-06-08T15:34:25.226Z,101759.17
2019-06-08T15:36:51.890Z,101754.42
2019-06-08T15:39:18.146Z,101759.78
2019-06-08T15:41:44.021Z,101780.36
2019-06-08T15:44:09.960Z,101798.43
2019-06-08T15:46:37.959Z,101814.91
2019-06-08T15:49:04.463Z,101798.05
2019-06-08T15:51:35.072Z,101805.69
2019-06-08T15:53:58.174Z,101810.92
2019-06-08T15:56:39.793Z,101797.55
2019-06-08T15:58:51.940Z,101802.92
2019-06-08T16:01:17.815Z,101785.60
2019-06-08T16:03:43.852Z,101794.42
2019-06-08T16:06:09.855Z,101804.13
2019-06-08T16:08:37.854Z,101793.91
2019-06-08T16:11:03.601Z,101794.27
2019-06-08T16:13:30.544Z,101792.20
2019-06-08T16:15:56.511Z,101794.77
2019-06-08T16:18:22.444Z,101786.27
2019-06-08T16:20:48.355Z,101803.64
2019-06-08T16:23:14.201Z,101794.59
2019-06-08T16:25:40.112Z,101797.05
2019-06-08T16:28:06.061Z,101790.10
2019-06-08T16:30:33.071Z,101797.54
2019-06-08T16:32:59.150Z,101803.30
2019-06-08T16:35:25.020Z,101789.95
2019-06-08T16:37:50.922Z,101821.32
2019-06-08T16:40:16.811Z,101812.62
2019-06-08T16:42:42.770Z,101812.32
2019-06-08T16:45:09.033Z,101818.70
2019-06-08T16:47:35.250Z,101815.59
2019-06-08T16:50:03.494Z,101819.58
2019-06-08T16:52:30.377Z,101837.09
2019-06-08T16:54:56.245Z,101820.77
2019-06-08T16:57:22.224Z,101833.42
2019-06-08T16:59:48.089Z,101817.85
2019-06-08T17:02:16.817Z,101840.89
2019-06-08T17:04:41.713Z,101829.47
2019-06-08T17:07:07.582Z,101831.20
2019-06-08T17:09:34.235Z,101838.30
2019-06-08T17:12:00.214Z,101842.81
2019-06-08T17:14:27.569Z,101845.56
2019-06-08T17:16:53.424Z,101838.45
2019-06-08T17:19:19.291Z,101845.58
2019-06-08T17:21:45.161Z,101848.01
2019-06-08T17:24:11.039Z,101858.77
2019-06-08T17:26:36.901Z,101857.73
2019-06-08T17:29:02.769Z,101862.55
2019-06-08T17:31:28.652Z,101871.93
2019-06-08T17:33:54.521Z,101869.16
2019-06-08T17:36:22.327Z,101874.84
2019-06-08T17:38:48.194Z,101852.84
2019-06-08T17:41:14.061Z,101870.01
2019-06-08T17:43:40.277Z,101881.63
2019-06-08T17:46:06.295Z,101862.54
2019-06-08T17:48:32.476Z,101876.39
2019-06-08T17:50:59.328Z,101881.45
2019-06-08T17:53:25.205Z,101869.81
2019-06-08T17:55:51.220Z,101889.58
2019-06-08T17:58:21.110Z,101879.34
2019-06-08T18:00:45.141Z,101878.98
2019-06-08T18:03:11.043Z,101891.98
2019-06-08T18:05:40.479Z,101896.67
2019-06-08T18:08:05.156Z,101891.80
2019-06-08T18:10:31.269Z,101880.89
2019-06-08T18:12:58.794Z,101890.95
2019-06-08T18:15:24.952Z,101891.13
2019-06-08T18:17:50.810Z,101902.70
2019-06-08T18:20:18.494Z,101891.97
2019-06-08T18:22:46.546Z,101889.69
2019-06-08T18:25:13.894Z,101903.69
2019-06-08T18:27:42.372Z,101898.31
2019-06-08T18:30:11.737Z,101896.59
2019-06-08T18:32:38.999Z,101910.08
2019-06-08T18:35:07.552Z,101912.32
2019-06-08T18:37:33.329Z,101907.28
2019-06-08T18:39:59.265Z,101901.58
2019-06-08T18:42:27.007Z,101909.48
2019-06-08T18:44:52.964Z,101908.97
2019-06-08T18:47:18.820Z,101916.41
2019-06-08T18:49:46.222Z,101919.52
2019-06-08T18:52:12.483Z,101915.69
2019-06-08T18:54:40.001Z,101919.26
2019-06-08T18:57:11.071Z,101918.88
2019-06-08T18:59:33.952Z,101937.23
2019-06-08T19:01:59.820Z,101929.27
2019-06-08T19:04:30.390Z,101937.66
2019-06-08T19:06:54.534Z,101947.88
2019-06-08T19:09:21.017Z,101953.95
2019-06-08T19:11:48.624Z,101949.45
2019-06-08T19:14:14.922Z,101960.89
2019-06-08T19:16:44.330Z,101963.00
2019-06-08T19:19:08.666Z,101966.55
2019-06-08T19:21:34.516Z,101963.58
2019-06-08T19:24:00.371Z,101971.33
2019-06-08T19:26:28.215Z,101972.09
2019-06-08T19:28:54.396Z,101979.91
2019-06-08T19:31:21.033Z,101977.37
2019-06-08T19:33:51.370Z,101981.95
2019-06-08T19:36:17.003Z,101984.09
2019-06-08T19:38:42.762Z,101988.44
2019-06-08T19:41:12.907Z,101994.01
2019-06-08T19:43:41.487Z,101991.14
2019-06-08T19:46:07.321Z,101999.64
2019-06-08T19:48:33.502Z,101995.13
2019-06-08T19:50:59.399Z,102005.02
2019-06-08T19:53:25.279Z,102011.36
2019-06-08T19:55:53.883Z,102019.13
2019-06-08T19:58:19.445Z,102006.81
2019-06-08T20:00:50.478Z,102023.28
2019-06-08T20:03:13.045Z,102028.49
2019-06-08T20:05:38.898Z,102037.52
2019-06-08T20:08:04.957Z,102043.34
2019-06-08T20:10:30.815Z,102045.50
2019-06-08T20:12:57.535Z,102035.77
2019-06-08T20:15:23.739Z,102048.36
2019-06-08T20:17:51.551Z,102045.93
2019-06-08T20:20:18.283Z,102064.43
2019-06-08T20:22:44.418Z,102059.47
2019-06-08T20:25:10.847Z,102073.00
2019-06-08T20:27:37.250Z,102073.41
2019-06-08T20:30:09.586Z,102072.84
2019-06-08T20:32:32.505Z,102075.08
2019-06-08T20:34:58.380Z,102075.73
2019-06-08T20:37:24.232Z,102088.56
2019-06-08T20:40:03.020Z,102078.03
2019-06-08T20:42:17.870Z,102091.69
2019-06-08T20:44:43.978Z,102089.67
2019-06-08T20:47:10.800Z,102089.73
2019-06-08T20:49:37.224Z,102085.09
2019-06-08T20:52:03.316Z,102095.73
2019-06-08T20:54:29.178Z,102098.38
2019-06-08T20:56:55.055Z,102100.13
2019-06-08T20:59:29.915Z,102110.80
2019-06-08T21:01:50.481Z,102113.27
2019-06-08T21:04:18.193Z,102115.82
2019-06-08T21:06:44.191Z,102114.42
2019-06-08T21:09:10.065Z,102113.95
2019-06-08T21:11:37.916Z,102114.23
2019-06-08T21:14:04.078Z,102112.21
2019-06-08T21:16:29.956Z,102123.16
2019-06-08T21:18:57.932Z,102133.01
2019-06-08T21:21:24.078Z,102128.41
2019-06-08T21:23:53.015Z,102124.10
2019-06-08T21:26:18.356Z,102131.59
2019-06-08T21:28:47.134Z,102132.03
2019-06-08T21:31:12.125Z,102133.25
2019-06-08T21:33:38.095Z,102130.14
2019-06-08T21:36:05.264Z,102136.83
2019-06-08T21:38:31.826Z,102126.49
2019-06-08T21:41:00.868Z,102132.19
2019-06-08T21:43:27.705Z,102129.42
2019-06-08T21:45:54.644Z,102129.91
2019-06-08T21:48:21.006Z,102132.23
2019-06-08T21:50:49.006Z,102136.75
2019-06-08T21:53:14.618Z,102131.87
2019-06-08T21:55:40.475Z,102129.75
2019-06-08T21:58:08.071Z,102124.94
2019-06-08T22:00:40.529Z,102130.91
2019-06-08T22:03:03.519Z,102137.97
2019-06-08T22:05:29.461Z,102133.91
2019-06-08T22:07:58.281Z,102140.50
2019-06-08T22:10:23.077Z,102143.94
2019-06-08T22:12:51.799Z,102141.86
2019-06-08T22:15:18.251Z,102146.91
2019-06-08T22:17:44.308Z,102148.85
2019-06-08T22:20:10.445Z,102149.02
2019-06-08T22:22:37.909Z,102155.13
2019-06-08T22:25:04.140Z,102155.69
2019-06-08T22:27:30.031Z,102153.51
2019-06-08T22:29:58.179Z,102149.97
2019-06-08T22:32:23.689Z,102150.55
2019-06-08T22:34:51.482Z,102162.09
2019-06-08T22:37:17.380Z,102160.65
2019-06-08T22:39:43.265Z,102164.55
2019-06-08T22:42:09.109Z,102162.79
2019-06-08T22:44:37.552Z,102162.27
2019-06-08T22:47:04.809Z,102165.61
2019-06-08T22:49:30.936Z,102178.39
2019-06-08T22:51:59.106Z,102164.44
2019-06-08T22:54:24.598Z,102167.10
2019-06-08T22:56:50.468Z,102171.81
2019-06-08T22:59:17.532Z,102164.08
2019-06-08T23:01:43.502Z,102165.75
2019-06-08T23:04:09.403Z,102171.92
2019-06-08T23:06:35.291Z,102173.45
2019-06-08T23:09:02.956Z,102177.87
2019-06-08T23:11:29.011Z,102175.11
2019-06-08T23:13:54.885Z,102180.53
2019-06-08T23:16:20.773Z,102173.83
2019-06-08T23:18:47.832Z,102181.38
2019-06-08T23:21:13.923Z,102179.15
2019-06-08T23:23:39.790Z,102179.67
2019-06-08T23:26:10.212Z,102183.19
2019-06-08T23:28:33.408Z,102178.00
2019-06-08T23:31:10.725Z,102179.00
2019-06-08T23:33:27.940Z,102176.61
2019-06-08T23:36:30.499Z,102178.02
2019-06-08T23:38:21.660Z,102187.08
2019-06-08T23:40:47.582Z,102180.86
2019-06-08T23:43:13.398Z,102171.63
2019-06-08T23:45:39.440Z,102180.62
2019-06-08T23:48:06.585Z,102180.62
2019-06-08T23:50:32.622Z,102182.84
2019-06-08T23:52:59.522Z,102188.12
2019-06-08T23:55:27.877Z,102168.50
2019-06-08T23:57:53.925Z,102173.43
